Aviation Digital Data Service (ADDS)

Output produced by METARs form (1313 UTC 15 November 2018)
found at http://www.aviationweather.gov/metar/data/
 
FIMR 151300Z 12015KT 9999 BKN018 27/21 Q1016
TAF FIMR 151135Z 1512/1606 12012G22KT 9999 SCT018
       
FIMP 151300Z 07007KT 8000 VCSH FEW006 BKN012 BKN045 24/22 Q1017
TAF FIMP 151130Z 1512/1618 13007KT 9999 SCT015 
     TEMPO 1512/1602 7000 -SHRA FEW010 BKN014 BKN050 
     PROB30 
     TEMPO 1512/1518 4000 SHRA FEW008 BKN013 BKN045